sensor_id;sensor_type;location;lat;lon;timestamp;P1;durP1;ratioP1;P2;durP2;ratioP2
58240;SDS011;45058;55.772;38.224;2024-02-15T00:00:37;10.77;;;3.57;;
58240;SDS011;45058;55.772;38.224;2024-02-15T00:03:05;11.17;;;5.53;;
58240;SDS011;45058;55.772;38.224;2024-02-15T00:05:34;14.30;;;5.13;;
58240;SDS011;45058;55.772;38.224;2024-02-15T00:08:03;12.80;;;6.40;;
58240;SDS011;45058;55.772;38.224;2024-02-15T00:10:30;13.77;;;4.93;;
58240;SDS011;45058;55.772;38.224;2024-02-15T00:12:56;13.13;;;4.93;;
58240;SDS011;45058;55.772;38.224;2024-02-15T00:15:22;21.33;;;6.00;;
58240;SDS011;45058;55.772;38.224;2024-02-15T00:17:48;10.77;;;3.90;;
58240;SDS011;45058;55.772;38.224;2024-02-15T00:20:14;12.40;;;5.10;;
58240;SDS011;45058;55.772;38.224;2024-02-15T00:22:41;10.87;;;4.43;;
58240;SDS011;45058;55.772;38.224;2024-02-15T00:25:08;12.83;;;5.23;;
58240;SDS011;45058;55.772;38.224;2024-02-15T00:27:37;7.60;;;4.17;;
58240;SDS011;45058;55.772;38.224;2024-02-15T00:30:03;13.80;;;4.80;;
58240;SDS011;45058;55.772;38.224;2024-02-15T00:32:33;11.83;;;5.00;;
58240;SDS011;45058;55.772;38.224;2024-02-15T00:35:00;15.70;;;4.93;;
58240;SDS011;45058;55.772;38.224;2024-02-15T00:37:27;9.73;;;4.90;;
58240;SDS011;45058;55.772;38.224;2024-02-15T00:39:53;11.30;;;5.20;;
58240;SDS011;45058;55.772;38.224;2024-02-15T00:42:19;11.80;;;5.23;;
58240;SDS011;45058;55.772;38.224;2024-02-15T00:44:45;15.00;;;5.83;;
58240;SDS011;45058;55.772;38.224;2024-02-15T00:47:11;10.20;;;5.03;;
58240;SDS011;45058;55.772;38.224;2024-02-15T00:49:38;14.13;;;5.53;;
58240;SDS011;45058;55.772;38.224;2024-02-15T00:52:04;11.33;;;5.10;;
58240;SDS011;45058;55.772;38.224;2024-02-15T00:54:31;13.57;;;5.50;;
58240;SDS011;45058;55.772;38.224;2024-02-15T00:56:57;10.73;;;4.77;;
58240;SDS011;45058;55.772;38.224;2024-02-15T00:59:23;13.90;;;5.97;;
58240;SDS011;45058;55.772;38.224;2024-02-15T01:01:49;9.90;;;5.33;;
58240;SDS011;45058;55.772;38.224;2024-02-15T01:04:15;15.30;;;6.00;;
58240;SDS011;45058;55.772;38.224;2024-02-15T01:06:41;13.13;;;5.27;;
58240;SDS011;45058;55.772;38.224;2024-02-15T01:09:07;11.63;;;4.37;;
58240;SDS011;45058;55.772;38.224;2024-02-15T01:11:35;12.70;;;5.20;;
58240;SDS011;45058;55.772;38.224;2024-02-15T01:14:02;13.60;;;5.87;;
58240;SDS011;45058;55.772;38.224;2024-02-15T01:16:29;11.53;;;5.73;;
58240;SDS011;45058;55.772;38.224;2024-02-15T01:18:56;12.53;;;5.90;;
58240;SDS011;45058;55.772;38.224;2024-02-15T01:21:22;13.40;;;5.37;;
58240;SDS011;45058;55.772;38.224;2024-02-15T01:23:48;13.20;;;5.97;;
58240;SDS011;45058;55.772;38.224;2024-02-15T01:26:14;10.87;;;5.53;;
58240;SDS011;45058;55.772;38.224;2024-02-15T01:28:41;12.20;;;5.20;;
58240;SDS011;45058;55.772;38.224;2024-02-15T01:31:10;10.97;;;5.20;;
58240;SDS011;45058;55.772;38.224;2024-02-15T01:33:37;11.00;;;4.47;;
58240;SDS011;45058;55.772;38.224;2024-02-15T01:36:03;11.53;;;4.93;;
58240;SDS011;45058;55.772;38.224;2024-02-15T01:38:30;13.50;;;5.37;;
58240;SDS011;45058;55.772;38.224;2024-02-15T01:40:57;16.47;;;6.33;;
58240;SDS011;45058;55.772;38.224;2024-02-15T01:43:23;20.80;;;6.00;;
58240;SDS011;45058;55.772;38.224;2024-02-15T01:45:49;13.93;;;5.07;;
58240;SDS011;45058;55.772;38.224;2024-02-15T01:48:16;13.83;;;4.13;;
58240;SDS011;45058;55.772;38.224;2024-02-15T01:50:42;12.27;;;5.07;;
58240;SDS011;45058;55.772;38.224;2024-02-15T01:53:09;14.63;;;6.00;;
58240;SDS011;45058;55.772;38.224;2024-02-15T01:55:35;10.77;;;4.90;;
58240;SDS011;45058;55.772;38.224;2024-02-15T01:58:03;14.40;;;5.17;;
58240;SDS011;45058;55.772;38.224;2024-02-15T02:00:29;15.77;;;6.17;;
58240;SDS011;45058;55.772;38.224;2024-02-15T02:02:57;12.73;;;5.70;;
58240;SDS011;45058;55.772;38.224;2024-02-15T02:05:29;14.97;;;6.17;;
58240;SDS011;45058;55.772;38.224;2024-02-15T02:07:57;11.77;;;5.63;;
58240;SDS011;45058;55.772;38.224;2024-02-15T02:10:30;11.93;;;5.43;;
58240;SDS011;45058;55.772;38.224;2024-02-15T02:13:00;17.43;;;6.33;;
58240;SDS011;45058;55.772;38.224;2024-02-15T02:15:31;14.70;;;5.90;;
58240;SDS011;45058;55.772;38.224;2024-02-15T02:17:58;12.63;;;5.37;;
58240;SDS011;45058;55.772;38.224;2024-02-15T02:20:28;12.10;;;6.07;;
58240;SDS011;45058;55.772;38.224;2024-02-15T02:22:54;17.97;;;6.00;;
58240;SDS011;45058;55.772;38.224;2024-02-15T02:25:25;11.43;;;5.37;;
58240;SDS011;45058;55.772;38.224;2024-02-15T02:27:54;13.33;;;5.53;;
58240;SDS011;45058;55.772;38.224;2024-02-15T02:30:21;10.17;;;4.73;;
58240;SDS011;45058;55.772;38.224;2024-02-15T02:32:48;12.20;;;5.47;;
58240;SDS011;45058;55.772;38.224;2024-02-15T02:35:14;10.97;;;5.23;;
58240;SDS011;45058;55.772;38.224;2024-02-15T02:37:42;17.03;;;5.87;;
58240;SDS011;45058;55.772;38.224;2024-02-15T02:40:08;14.33;;;6.30;;
58240;SDS011;45058;55.772;38.224;2024-02-15T02:42:36;13.43;;;5.60;;
58240;SDS011;45058;55.772;38.224;2024-02-15T02:45:11;14.17;;;6.23;;
58240;SDS011;45058;55.772;38.224;2024-02-15T02:47:37;17.33;;;6.43;;
58240;SDS011;45058;55.772;38.224;2024-02-15T02:50:04;16.00;;;5.90;;
58240;SDS011;45058;55.772;38.224;2024-02-15T02:52:30;16.13;;;5.53;;
58240;SDS011;45058;55.772;38.224;2024-02-15T02:54:58;12.67;;;5.77;;
58240;SDS011;45058;55.772;38.224;2024-02-15T02:57:24;14.63;;;6.37;;
58240;SDS011;45058;55.772;38.224;2024-02-15T02:59:51;11.03;;;5.33;;
58240;SDS011;45058;55.772;38.224;2024-02-15T03:02:17;12.37;;;5.33;;
58240;SDS011;45058;55.772;38.224;2024-02-15T03:04:43;19.27;;;5.47;;
58240;SDS011;45058;55.772;38.224;2024-02-15T03:07:09;12.53;;;5.73;;
58240;SDS011;45058;55.772;38.224;2024-02-15T03:09:35;14.80;;;6.33;;
58240;SDS011;45058;55.772;38.224;2024-02-15T03:12:02;11.30;;;5.70;;
58240;SDS011;45058;55.772;38.224;2024-02-15T03:14:30;14.70;;;6.17;;
58240;SDS011;45058;55.772;38.224;2024-02-15T03:16:57;13.17;;;5.97;;
58240;SDS011;45058;55.772;38.224;2024-02-15T03:19:23;15.40;;;6.03;;
58240;SDS011;45058;55.772;38.224;2024-02-15T03:21:49;12.93;;;5.73;;
58240;SDS011;45058;55.772;38.224;2024-02-15T03:24:15;13.47;;;5.20;;
58240;SDS011;45058;55.772;38.224;2024-02-15T03:26:41;13.47;;;5.03;;
58240;SDS011;45058;55.772;38.224;2024-02-15T03:29:08;12.57;;;5.50;;
58240;SDS011;45058;55.772;38.224;2024-02-15T03:31:35;12.87;;;6.03;;
58240;SDS011;45058;55.772;38.224;2024-02-15T03:34:05;11.60;;;5.73;;
58240;SDS011;45058;55.772;38.224;2024-02-15T03:36:31;12.93;;;4.97;;
58240;SDS011;45058;55.772;38.224;2024-02-15T03:38:58;13.13;;;5.33;;
58240;SDS011;45058;55.772;38.224;2024-02-15T03:41:27;9.97;;;4.53;;
58240;SDS011;45058;55.772;38.224;2024-02-15T03:43:58;14.90;;;6.30;;
58240;SDS011;45058;55.772;38.224;2024-02-15T03:46:25;13.13;;;5.67;;
58240;SDS011;45058;55.772;38.224;2024-02-15T03:48:53;12.90;;;5.60;;
58240;SDS011;45058;55.772;38.224;2024-02-15T03:51:19;13.53;;;6.30;;
58240;SDS011;45058;55.772;38.224;2024-02-15T03:53:46;14.73;;;4.40;;
58240;SDS011;45058;55.772;38.224;2024-02-15T03:56:14;14.20;;;5.80;;
58240;SDS011;45058;55.772;38.224;2024-02-15T03:58:40;12.83;;;5.57;;
58240;SDS011;45058;55.772;38.224;2024-02-15T04:01:06;13.67;;;5.83;;
58240;SDS011;45058;55.772;38.224;2024-02-15T04:03:35;13.40;;;5.53;;
58240;SDS011;45058;55.772;38.224;2024-02-15T04:06:02;12.90;;;5.73;;
58240;SDS011;45058;55.772;38.224;2024-02-15T04:08:30;13.23;;;5.60;;
58240;SDS011;45058;55.772;38.224;2024-02-15T04:10:56;13.27;;;5.77;;
58240;SDS011;45058;55.772;38.224;2024-02-15T04:13:23;16.13;;;6.67;;
58240;SDS011;45058;55.772;38.224;2024-02-15T04:15:49;14.60;;;6.10;;
58240;SDS011;45058;55.772;38.224;2024-02-15T04:18:19;12.23;;;5.87;;
58240;SDS011;45058;55.772;38.224;2024-02-15T04:20:45;18.50;;;6.50;;
58240;SDS011;45058;55.772;38.224;2024-02-15T04:23:12;15.93;;;6.20;;
58240;SDS011;45058;55.772;38.224;2024-02-15T04:25:38;20.53;;;9.43;;
58240;SDS011;45058;55.772;38.224;2024-02-15T04:28:06;17.50;;;7.37;;
58240;SDS011;45058;55.772;38.224;2024-02-15T04:30:35;17.13;;;6.07;;
58240;SDS011;45058;55.772;38.224;2024-02-15T04:33:04;15.57;;;6.53;;
58240;SDS011;45058;55.772;38.224;2024-02-15T04:35:34;11.70;;;5.60;;
58240;SDS011;45058;55.772;38.224;2024-02-15T04:38:01;16.90;;;5.70;;
58240;SDS011;45058;55.772;38.224;2024-02-15T04:40:29;13.97;;;5.90;;
58240;SDS011;45058;55.772;38.224;2024-02-15T04:42:55;12.00;;;5.40;;
58240;SDS011;45058;55.772;38.224;2024-02-15T04:45:21;11.40;;;5.53;;
58240;SDS011;45058;55.772;38.224;2024-02-15T04:48:05;14.60;;;6.47;;
58240;SDS011;45058;55.772;38.224;2024-02-15T04:50:32;13.93;;;5.53;;
58240;SDS011;45058;55.772;38.224;2024-02-15T04:52:59;9.37;;;4.70;;
58240;SDS011;45058;55.772;38.224;2024-02-15T04:55:25;17.53;;;6.70;;
58240;SDS011;45058;55.772;38.224;2024-02-15T04:57:51;15.50;;;5.73;;
58240;SDS011;45058;55.772;38.224;2024-02-15T05:00:21;11.60;;;5.60;;
58240;SDS011;45058;55.772;38.224;2024-02-15T05:02:48;13.47;;;5.60;;
58240;SDS011;45058;55.772;38.224;2024-02-15T05:05:15;17.07;;;6.87;;
58240;SDS011;45058;55.772;38.224;2024-02-15T05:07:41;12.37;;;5.27;;
58240;SDS011;45058;55.772;38.224;2024-02-15T05:10:08;13.57;;;5.50;;
58240;SDS011;45058;55.772;38.224;2024-02-15T05:12:35;10.60;;;5.40;;
58240;SDS011;45058;55.772;38.224;2024-02-15T05:15:02;10.40;;;5.47;;
58240;SDS011;45058;55.772;38.224;2024-02-15T05:17:39;12.03;;;5.33;;
58240;SDS011;45058;55.772;38.224;2024-02-15T05:20:11;15.17;;;6.53;;
58240;SDS011;45058;55.772;38.224;2024-02-15T05:22:39;18.33;;;6.03;;
58240;SDS011;45058;55.772;38.224;2024-02-15T05:25:10;11.03;;;5.57;;
58240;SDS011;45058;55.772;38.224;2024-02-15T05:27:37;10.50;;;4.97;;
58240;SDS011;45058;55.772;38.224;2024-02-15T05:30:04;12.63;;;5.20;;
58240;SDS011;45058;55.772;38.224;2024-02-15T05:32:35;13.37;;;5.40;;
58240;SDS011;45058;55.772;38.224;2024-02-15T05:35:09;12.70;;;5.40;;
58240;SDS011;45058;55.772;38.224;2024-02-15T05:37:37;12.90;;;5.37;;
58240;SDS011;45058;55.772;38.224;2024-02-15T05:40:03;10.70;;;5.50;;
58240;SDS011;45058;55.772;38.224;2024-02-15T05:42:30;13.20;;;5.80;;
58240;SDS011;45058;55.772;38.224;2024-02-15T05:44:58;11.50;;;5.10;;
58240;SDS011;45058;55.772;38.224;2024-02-15T05:47:58;13.17;;;5.90;;
58240;SDS011;45058;55.772;38.224;2024-02-15T05:50:24;14.17;;;5.27;;
58240;SDS011;45058;55.772;38.224;2024-02-15T05:52:53;13.33;;;6.10;;
58240;SDS011;45058;55.772;38.224;2024-02-15T05:55:20;10.40;;;5.40;;
58240;SDS011;45058;55.772;38.224;2024-02-15T05:57:46;11.97;;;5.03;;
58240;SDS011;45058;55.772;38.224;2024-02-15T06:00:12;14.80;;;5.93;;
58240;SDS011;45058;55.772;38.224;2024-02-15T06:02:40;12.73;;;5.20;;
58240;SDS011;45058;55.772;38.224;2024-02-15T06:05:06;9.87;;;4.93;;
58240;SDS011;45058;55.772;38.224;2024-02-15T06:07:35;14.43;;;5.93;;
58240;SDS011;45058;55.772;38.224;2024-02-15T06:10:02;12.67;;;5.40;;
58240;SDS011;45058;55.772;38.224;2024-02-15T06:12:29;12.43;;;6.17;;
58240;SDS011;45058;55.772;38.224;2024-02-15T06:14:55;13.67;;;5.87;;
58240;SDS011;45058;55.772;38.224;2024-02-15T06:17:22;14.10;;;5.30;;
58240;SDS011;45058;55.772;38.224;2024-02-15T06:19:48;12.23;;;5.90;;
58240;SDS011;45058;55.772;38.224;2024-02-15T06:22:14;12.00;;;6.03;;
58240;SDS011;45058;55.772;38.224;2024-02-15T06:24:40;12.57;;;5.83;;
58240;SDS011;45058;55.772;38.224;2024-02-15T06:27:07;17.60;;;6.20;;
58240;SDS011;45058;55.772;38.224;2024-02-15T06:29:33;13.80;;;5.43;;
58240;SDS011;45058;55.772;38.224;2024-02-15T06:32:18;13.23;;;6.43;;
58240;SDS011;45058;55.772;38.224;2024-02-15T06:35:02;13.97;;;6.70;;
58240;SDS011;45058;55.772;38.224;2024-02-15T06:37:47;16.53;;;7.40;;
58240;SDS011;45058;55.772;38.224;2024-02-15T06:40:32;25.67;;;9.33;;
58240;SDS011;45058;55.772;38.224;2024-02-15T06:42:58;20.70;;;8.80;;
58240;SDS011;45058;55.772;38.224;2024-02-15T06:45:24;17.77;;;7.37;;
58240;SDS011;45058;55.772;38.224;2024-02-15T06:47:51;13.73;;;6.27;;
58240;SDS011;45058;55.772;38.224;2024-02-15T06:50:17;14.30;;;6.47;;
58240;SDS011;45058;55.772;38.224;2024-02-15T06:52:43;13.10;;;6.30;;
58240;SDS011;45058;55.772;38.224;2024-02-15T06:55:12;15.33;;;6.33;;
58240;SDS011;45058;55.772;38.224;2024-02-15T06:57:40;14.97;;;6.43;;
58240;SDS011;45058;55.772;38.224;2024-02-15T07:00:07;14.37;;;5.73;;
58240;SDS011;45058;55.772;38.224;2024-02-15T07:02:35;16.27;;;6.63;;
58240;SDS011;45058;55.772;38.224;2024-02-15T07:05:02;10.53;;;5.17;;
58240;SDS011;45058;55.772;38.224;2024-02-15T07:07:28;14.53;;;7.27;;
58240;SDS011;45058;55.772;38.224;2024-02-15T07:09:55;14.63;;;6.93;;
58240;SDS011;45058;55.772;38.224;2024-02-15T07:12:21;14.20;;;6.20;;
58240;SDS011;45058;55.772;38.224;2024-02-15T07:14:47;14.33;;;6.83;;
58240;SDS011;45058;55.772;38.224;2024-02-15T07:17:14;18.23;;;7.20;;
58240;SDS011;45058;55.772;38.224;2024-02-15T07:19:42;16.57;;;7.17;;
58240;SDS011;45058;55.772;38.224;2024-02-15T07:22:10;18.57;;;7.83;;
58240;SDS011;45058;55.772;38.224;2024-02-15T07:24:37;18.67;;;7.60;;
58240;SDS011;45058;55.772;38.224;2024-02-15T07:27:04;19.83;;;8.53;;
58240;SDS011;45058;55.772;38.224;2024-02-15T07:29:31;16.17;;;7.50;;
58240;SDS011;45058;55.772;38.224;2024-02-15T07:32:00;15.80;;;7.43;;
58240;SDS011;45058;55.772;38.224;2024-02-15T07:34:32;17.90;;;6.90;;
58240;SDS011;45058;55.772;38.224;2024-02-15T07:37:02;13.23;;;6.20;;
58240;SDS011;45058;55.772;38.224;2024-02-15T07:39:31;13.77;;;7.00;;
58240;SDS011;45058;55.772;38.224;2024-02-15T07:41:58;13.03;;;6.17;;
58240;SDS011;45058;55.772;38.224;2024-02-15T07:44:27;12.60;;;6.50;;
58240;SDS011;45058;55.772;38.224;2024-02-15T07:46:56;13.17;;;6.43;;
58240;SDS011;45058;55.772;38.224;2024-02-15T07:49:27;17.97;;;7.17;;
58240;SDS011;45058;55.772;38.224;2024-02-15T07:51:57;14.10;;;6.63;;
58240;SDS011;45058;55.772;38.224;2024-02-15T07:54:26;10.50;;;6.10;;
58240;SDS011;45058;55.772;38.224;2024-02-15T07:56:54;12.37;;;6.27;;
58240;SDS011;45058;55.772;38.224;2024-02-15T07:59:20;12.43;;;6.77;;
58240;SDS011;45058;55.772;38.224;2024-02-15T08:01:47;13.60;;;6.77;;
58240;SDS011;45058;55.772;38.224;2024-02-15T08:04:18;14.03;;;6.47;;
58240;SDS011;45058;55.772;38.224;2024-02-15T08:06:46;16.37;;;7.63;;
58240;SDS011;45058;55.772;38.224;2024-02-15T08:09:15;17.60;;;6.37;;
58240;SDS011;45058;55.772;38.224;2024-02-15T08:11:45;15.17;;;6.80;;
58240;SDS011;45058;55.772;38.224;2024-02-15T08:14:12;12.27;;;5.87;;
58240;SDS011;45058;55.772;38.224;2024-02-15T08:16:40;17.00;;;6.87;;
58240;SDS011;45058;55.772;38.224;2024-02-15T08:19:08;15.40;;;6.73;;
58240;SDS011;45058;55.772;38.224;2024-02-15T08:21:36;18.07;;;7.53;;
58240;SDS011;45058;55.772;38.224;2024-02-15T08:24:05;11.70;;;6.43;;
58240;SDS011;45058;55.772;38.224;2024-02-15T08:26:38;12.63;;;6.07;;
58240;SDS011;45058;55.772;38.224;2024-02-15T08:29:06;13.63;;;6.77;;
58240;SDS011;45058;55.772;38.224;2024-02-15T08:31:41;15.35;;;7.05;;
58240;SDS011;45058;55.772;38.224;2024-02-15T08:34:09;13.87;;;7.27;;
58240;SDS011;45058;55.772;38.224;2024-02-15T08:36:40;13.40;;;6.17;;
58240;SDS011;45058;55.772;38.224;2024-02-15T08:39:07;15.97;;;6.70;;
58240;SDS011;45058;55.772;38.224;2024-02-15T08:41:42;13.17;;;6.97;;
58240;SDS011;45058;55.772;38.224;2024-02-15T08:44:13;15.40;;;7.53;;
58240;SDS011;45058;55.772;38.224;2024-02-15T08:46:42;30.07;;;7.07;;
58240;SDS011;45058;55.772;38.224;2024-02-15T08:49:09;16.23;;;7.10;;
58240;SDS011;45058;55.772;38.224;2024-02-15T08:51:39;16.97;;;7.70;;
58240;SDS011;45058;55.772;38.224;2024-02-15T08:54:06;14.80;;;6.83;;
58240;SDS011;45058;55.772;38.224;2024-02-15T08:56:33;17.63;;;7.33;;
58240;SDS011;45058;55.772;38.224;2024-02-15T08:59:01;16.63;;;7.07;;
58240;SDS011;45058;55.772;38.224;2024-02-15T09:01:28;12.93;;;6.17;;
58240;SDS011;45058;55.772;38.224;2024-02-15T09:04:00;15.57;;;7.33;;
58240;SDS011;45058;55.772;38.224;2024-02-15T09:06:32;17.40;;;7.90;;
58240;SDS011;45058;55.772;38.224;2024-02-15T09:08:59;14.43;;;6.30;;
58240;SDS011;45058;55.772;38.224;2024-02-15T09:11:31;16.30;;;7.03;;
58240;SDS011;45058;55.772;38.224;2024-02-15T09:13:57;13.13;;;7.10;;
58240;SDS011;45058;55.772;38.224;2024-02-15T09:16:24;16.07;;;7.60;;
58240;SDS011;45058;55.772;38.224;2024-02-15T09:18:53;15.63;;;7.27;;
58240;SDS011;45058;55.772;38.224;2024-02-15T09:21:22;16.33;;;7.17;;
58240;SDS011;45058;55.772;38.224;2024-02-15T09:23:51;14.70;;;7.47;;
58240;SDS011;45058;55.772;38.224;2024-02-15T09:26:23;14.87;;;7.47;;
58240;SDS011;45058;55.772;38.224;2024-02-15T09:28:50;15.10;;;6.80;;
58240;SDS011;45058;55.772;38.224;2024-02-15T09:31:25;14.73;;;7.43;;
58240;SDS011;45058;55.772;38.224;2024-02-15T09:33:58;13.38;;;6.90;;
58240;SDS011;45058;55.772;38.224;2024-02-15T09:36:37;13.07;;;6.80;;
58240;SDS011;45058;55.772;38.224;2024-02-15T09:39:05;14.93;;;6.80;;
58240;SDS011;45058;55.772;38.224;2024-02-15T09:41:32;12.03;;;6.37;;
58240;SDS011;45058;55.772;38.224;2024-02-15T09:44:01;13.07;;;6.67;;
58240;SDS011;45058;55.772;38.224;2024-02-15T09:46:32;13.33;;;6.50;;
58240;SDS011;45058;55.772;38.224;2024-02-15T09:49:02;15.37;;;7.37;;
58240;SDS011;45058;55.772;38.224;2024-02-15T09:51:30;17.50;;;7.43;;
58240;SDS011;45058;55.772;38.224;2024-02-15T09:53:58;13.20;;;6.30;;
58240;SDS011;45058;55.772;38.224;2024-02-15T09:56:37;15.52;;;6.57;;
58240;SDS011;45058;55.772;38.224;2024-02-15T09:59:04;13.80;;;7.00;;
58240;SDS011;45058;55.772;38.224;2024-02-15T10:01:32;18.70;;;7.13;;
58240;SDS011;45058;55.772;38.224;2024-02-15T10:04:02;14.77;;;7.80;;
58240;SDS011;45058;55.772;38.224;2024-02-15T10:06:32;13.33;;;6.83;;
58240;SDS011;45058;55.772;38.224;2024-02-15T10:12:02;16.90;;;7.60;;
58240;SDS011;45058;55.772;38.224;2024-02-15T10:14:33;13.07;;;7.32;;
58240;SDS011;45058;55.772;38.224;2024-02-15T10:17:07;16.93;;;8.60;;
58240;SDS011;45058;55.772;38.224;2024-02-15T10:19:37;15.23;;;7.70;;
58240;SDS011;45058;55.772;38.224;2024-02-15T10:22:23;14.80;;;7.30;;
58240;SDS011;45058;55.772;38.224;2024-02-15T10:24:51;16.67;;;7.30;;
58240;SDS011;45058;55.772;38.224;2024-02-15T10:27:17;18.10;;;7.90;;
58240;SDS011;45058;55.772;38.224;2024-02-15T10:29:55;16.50;;;7.97;;
58240;SDS011;45058;55.772;38.224;2024-02-15T10:32:45;16.60;;;7.53;;
58240;SDS011;45058;55.772;38.224;2024-02-15T10:35:20;16.00;;;8.07;;
58240;SDS011;45058;55.772;38.224;2024-02-15T10:38:09;16.60;;;7.63;;
58240;SDS011;45058;55.772;38.224;2024-02-15T10:40:39;20.10;;;8.27;;
58240;SDS011;45058;55.772;38.224;2024-02-15T10:43:09;20.93;;;8.50;;
58240;SDS011;45058;55.772;38.224;2024-02-15T10:45:40;19.00;;;8.57;;
58240;SDS011;45058;55.772;38.224;2024-02-15T10:48:10;18.10;;;7.77;;
58240;SDS011;45058;55.772;38.224;2024-02-15T10:59:15;16.23;;;8.07;;
58240;SDS011;45058;55.772;38.224;2024-02-15T11:01:58;14.10;;;6.90;;
58240;SDS011;45058;55.772;38.224;2024-02-15T11:04:35;17.50;;;7.77;;
58240;SDS011;45058;55.772;38.224;2024-02-15T11:07:04;16.93;;;7.17;;
58240;SDS011;45058;55.772;38.224;2024-02-15T11:09:33;15.83;;;7.73;;
58240;SDS011;45058;55.772;38.224;2024-02-15T11:12:05;16.37;;;8.23;;
58240;SDS011;45058;55.772;38.224;2024-02-15T11:14:37;16.00;;;8.10;;
58240;SDS011;45058;55.772;38.224;2024-02-15T11:17:07;16.77;;;8.67;;
58240;SDS011;45058;55.772;38.224;2024-02-15T11:22:23;17.97;;;8.40;;
58240;SDS011;45058;55.772;38.224;2024-02-15T11:25:18;18.27;;;7.43;;
58240;SDS011;45058;55.772;38.224;2024-02-15T11:30:53;16.37;;;7.53;;
58240;SDS011;45058;55.772;38.224;2024-02-15T11:36:11;15.33;;;8.07;;
58240;SDS011;45058;55.772;38.224;2024-02-15T11:38:40;24.13;;;10.30;;
58240;SDS011;45058;55.772;38.224;2024-02-15T11:41:11;17.00;;;8.63;;
58240;SDS011;45058;55.772;38.224;2024-02-15T11:43:47;15.50;;;7.60;;
58240;SDS011;45058;55.772;38.224;2024-02-15T11:46:23;15.50;;;7.63;;
58240;SDS011;45058;55.772;38.224;2024-02-15T11:48:51;14.37;;;5.93;;
58240;SDS011;45058;55.772;38.224;2024-02-15T11:51:30;18.90;;;7.50;;
58240;SDS011;45058;55.772;38.224;2024-02-15T11:54:08;14.27;;;7.63;;
58240;SDS011;45058;55.772;38.224;2024-02-15T11:59:17;13.17;;;7.10;;
58240;SDS011;45058;55.772;38.224;2024-02-15T12:01:59;17.73;;;8.47;;
58240;SDS011;45058;55.772;38.224;2024-02-15T12:04:45;12.25;;;6.47;;
58240;SDS011;45058;55.772;38.224;2024-02-15T12:07:44;13.97;;;7.63;;
58240;SDS011;45058;55.772;38.224;2024-02-15T12:10:29;10.80;;;6.32;;
58240;SDS011;45058;55.772;38.224;2024-02-15T12:13:18;16.38;;;6.72;;
58240;SDS011;45058;55.772;38.224;2024-02-15T12:16:03;15.37;;;6.63;;
58240;SDS011;45058;55.772;38.224;2024-02-15T12:18:48;11.52;;;6.05;;
58240;SDS011;45058;55.772;38.224;2024-02-15T12:21:22;15.63;;;7.17;;
58240;SDS011;45058;55.772;38.224;2024-02-15T12:23:52;21.40;;;7.77;;
58240;SDS011;45058;55.772;38.224;2024-02-15T12:26:22;15.47;;;7.67;;
58240;SDS011;45058;55.772;38.224;2024-02-15T12:28:57;16.80;;;8.20;;
58240;SDS011;45058;55.772;38.224;2024-02-15T12:31:27;17.07;;;7.50;;
58240;SDS011;45058;55.772;38.224;2024-02-15T12:34:02;18.77;;;7.80;;
58240;SDS011;45058;55.772;38.224;2024-02-15T12:36:36;18.07;;;7.80;;
58240;SDS011;45058;55.772;38.224;2024-02-15T12:39:04;20.83;;;9.53;;
58240;SDS011;45058;55.772;38.224;2024-02-15T12:41:40;16.17;;;8.00;;
58240;SDS011;45058;55.772;38.224;2024-02-15T12:44:08;17.20;;;8.00;;
58240;SDS011;45058;55.772;38.224;2024-02-15T12:46:39;15.03;;;7.57;;
58240;SDS011;45058;55.772;38.224;2024-02-15T12:51:52;19.13;;;8.23;;
58240;SDS011;45058;55.772;38.224;2024-02-15T12:54:20;15.77;;;7.53;;
58240;SDS011;45058;55.772;38.224;2024-02-15T12:56:51;17.20;;;8.33;;
58240;SDS011;45058;55.772;38.224;2024-02-15T12:59:38;16.17;;;8.67;;
58240;SDS011;45058;55.772;38.224;2024-02-15T13:02:09;16.17;;;7.70;;
58240;SDS011;45058;55.772;38.224;2024-02-15T13:04:36;16.27;;;7.67;;
58240;SDS011;45058;55.772;38.224;2024-02-15T13:07:05;18.37;;;8.33;;
58240;SDS011;45058;55.772;38.224;2024-02-15T13:09:40;14.87;;;7.53;;
58240;SDS011;45058;55.772;38.224;2024-02-15T13:12:14;18.63;;;8.60;;
58240;SDS011;45058;55.772;38.224;2024-02-15T13:14:42;15.63;;;7.80;;
58240;SDS011;45058;55.772;38.224;2024-02-15T13:17:09;16.13;;;8.20;;
58240;SDS011;45058;55.772;38.224;2024-02-15T13:19:46;15.80;;;7.80;;
58240;SDS011;45058;55.772;38.224;2024-02-15T13:22:16;18.13;;;8.27;;
58240;SDS011;45058;55.772;38.224;2024-02-15T13:24:47;18.80;;;8.87;;
58240;SDS011;45058;55.772;38.224;2024-02-15T13:27:15;17.80;;;7.33;;
58240;SDS011;45058;55.772;38.224;2024-02-15T13:29:42;16.30;;;8.23;;
58240;SDS011;45058;55.772;38.224;2024-02-15T13:32:10;16.77;;;7.47;;
58240;SDS011;45058;55.772;38.224;2024-02-15T13:34:38;16.97;;;8.20;;
58240;SDS011;45058;55.772;38.224;2024-02-15T13:37:06;16.90;;;8.33;;
58240;SDS011;45058;55.772;38.224;2024-02-15T13:39:32;17.83;;;8.60;;
58240;SDS011;45058;55.772;38.224;2024-02-15T13:42:05;20.20;;;8.63;;
58240;SDS011;45058;55.772;38.224;2024-02-15T13:44:48;16.37;;;7.93;;
58240;SDS011;45058;55.772;38.224;2024-02-15T13:47:22;18.77;;;8.60;;
58240;SDS011;45058;55.772;38.224;2024-02-15T13:49:51;17.47;;;8.60;;
58240;SDS011;45058;55.772;38.224;2024-02-15T13:52:21;16.40;;;7.53;;
58240;SDS011;45058;55.772;38.224;2024-02-15T13:54:48;21.83;;;8.53;;
58240;SDS011;45058;55.772;38.224;2024-02-15T13:57:15;18.67;;;9.23;;
58240;SDS011;45058;55.772;38.224;2024-02-15T13:59:46;17.83;;;8.10;;
58240;SDS011;45058;55.772;38.224;2024-02-15T14:02:13;18.83;;;9.13;;
58240;SDS011;45058;55.772;38.224;2024-02-15T14:04:43;18.87;;;9.13;;
58240;SDS011;45058;55.772;38.224;2024-02-15T14:07:13;20.37;;;9.70;;
58240;SDS011;45058;55.772;38.224;2024-02-15T14:09:40;15.93;;;8.90;;
58240;SDS011;45058;55.772;38.224;2024-02-15T14:12:07;16.33;;;7.90;;
58240;SDS011;45058;55.772;38.224;2024-02-15T14:14:35;19.60;;;9.07;;
58240;SDS011;45058;55.772;38.224;2024-02-15T14:17:01;17.43;;;8.97;;
58240;SDS011;45058;55.772;38.224;2024-02-15T14:19:29;16.10;;;8.03;;
58240;SDS011;45058;55.772;38.224;2024-02-15T14:21:59;16.23;;;7.87;;
58240;SDS011;45058;55.772;38.224;2024-02-15T14:24:28;17.60;;;8.67;;
58240;SDS011;45058;55.772;38.224;2024-02-15T14:26:57;15.07;;;8.13;;
58240;SDS011;45058;55.772;38.224;2024-02-15T14:29:25;22.03;;;9.37;;
58240;SDS011;45058;55.772;38.224;2024-02-15T14:31:58;20.10;;;8.40;;
58240;SDS011;45058;55.772;38.224;2024-02-15T14:34:45;14.90;;;6.95;;
58240;SDS011;45058;55.772;38.224;2024-02-15T14:37:21;15.90;;;7.50;;
58240;SDS011;45058;55.772;38.224;2024-02-15T14:40:08;15.83;;;7.90;;
58240;SDS011;45058;55.772;38.224;2024-02-15T14:42:38;17.17;;;9.00;;
58240;SDS011;45058;55.772;38.224;2024-02-15T14:45:11;18.00;;;8.73;;
58240;SDS011;45058;55.772;38.224;2024-02-15T14:47:44;18.48;;;8.27;;
58240;SDS011;45058;55.772;38.224;2024-02-15T14:50:12;16.50;;;8.47;;
58240;SDS011;45058;55.772;38.224;2024-02-15T14:52:39;17.00;;;8.80;;
58240;SDS011;45058;55.772;38.224;2024-02-15T14:55:14;19.47;;;9.27;;
58240;SDS011;45058;55.772;38.224;2024-02-15T14:57:48;16.40;;;7.88;;
58240;SDS011;45058;55.772;38.224;2024-02-15T15:00:15;16.17;;;7.97;;